sensor_id;sensor_type;location;lat;lon;timestamp;temperature;humidity
23010;DHT22;11671;49.990;8.028;2023-05-10T00:00:11;15.10;99.90
23010;DHT22;11671;49.990;8.028;2023-05-10T00:02:37;14.90;99.90
23010;DHT22;11671;49.990;8.028;2023-05-10T00:05:03;14.80;99.90
23010;DHT22;11671;49.990;8.028;2023-05-10T00:07:28;14.80;99.90
23010;DHT22;11671;49.990;8.028;2023-05-10T00:09:54;14.80;99.90
23010;DHT22;11671;49.990;8.028;2023-05-10T00:12:20;14.80;99.90
23010;DHT22;11671;49.990;8.028;2023-05-10T00:14:45;14.80;99.90
23010;DHT22;11671;49.990;8.028;2023-05-10T00:17:11;14.80;99.90
23010;DHT22;11671;49.990;8.028;2023-05-10T00:19:36;14.80;99.90
23010;DHT22;11671;49.990;8.028;2023-05-10T00:22:02;14.80;99.90
23010;DHT22;11671;49.990;8.028;2023-05-10T00:24:28;14.70;99.90
23010;DHT22;11671;49.990;8.028;2023-05-10T00:26:53;14.70;99.90
23010;DHT22;11671;49.990;8.028;2023-05-10T00:29:19;14.70;99.90
23010;DHT22;11671;49.990;8.028;2023-05-10T00:31:45;14.70;99.90
23010;DHT22;11671;49.990;8.028;2023-05-10T00:34:10;14.80;99.90
23010;DHT22;11671;49.990;8.028;2023-05-10T00:36:36;14.80;99.90
23010;DHT22;11671;49.990;8.028;2023-05-10T00:39:02;14.80;99.90
23010;DHT22;11671;49.990;8.028;2023-05-10T00:41:29;14.80;99.90
23010;DHT22;11671;49.990;8.028;2023-05-10T00:43:57;14.70;99.90
23010;DHT22;11671;49.990;8.028;2023-05-10T00:46:22;14.70;99.90
23010;DHT22;11671;49.990;8.028;2023-05-10T00:48:48;14.50;99.90
23010;DHT22;11671;49.990;8.028;2023-05-10T00:51:14;14.50;99.90
23010;DHT22;11671;49.990;8.028;2023-05-10T00:53:40;14.50;99.90
23010;DHT22;11671;49.990;8.028;2023-05-10T00:56:06;14.50;99.90
23010;DHT22;11671;49.990;8.028;2023-05-10T00:58:32;14.50;99.90
23010;DHT22;11671;49.990;8.028;2023-05-10T01:00:58;14.50;99.90
23010;DHT22;11671;49.990;8.028;2023-05-10T01:03:25;14.50;99.90
23010;DHT22;11671;49.990;8.028;2023-05-10T01:05:51;14.60;99.90
23010;DHT22;11671;49.990;8.028;2023-05-10T01:08:16;14.60;99.90
23010;DHT22;11671;49.990;8.028;2023-05-10T01:10:43;14.60;99.90
23010;DHT22;11671;49.990;8.028;2023-05-10T01:13:09;14.60;99.90
23010;DHT22;11671;49.990;8.028;2023-05-10T01:15:35;14.60;99.90
23010;DHT22;11671;49.990;8.028;2023-05-10T01:18:02;14.60;99.90
23010;DHT22;11671;49.990;8.028;2023-05-10T01:20:35;14.60;99.90
23010;DHT22;11671;49.990;8.028;2023-05-10T01:38:47;14.60;99.90
23010;DHT22;11671;49.990;8.028;2023-05-10T01:41:29;14.70;99.90
23010;DHT22;11671;49.990;8.028;2023-05-10T01:44:11;14.70;99.90
23010;DHT22;11671;49.990;8.028;2023-05-10T01:46:42;14.60;99.90
23010;DHT22;11671;49.990;8.028;2023-05-10T01:49:08;14.60;99.90
23010;DHT22;11671;49.990;8.028;2023-05-10T01:51:47;14.60;99.90
23010;DHT22;11671;49.990;8.028;2023-05-10T01:54:17;14.50;99.90
23010;DHT22;11671;49.990;8.028;2023-05-10T01:56:50;14.50;99.90
23010;DHT22;11671;49.990;8.028;2023-05-10T01:59:19;14.50;99.90
23010;DHT22;11671;49.990;8.028;2023-05-10T02:01:46;14.50;99.90
23010;DHT22;11671;49.990;8.028;2023-05-10T02:04:15;14.50;99.90
23010;DHT22;11671;49.990;8.028;2023-05-10T02:06:43;14.50;99.90
23010;DHT22;11671;49.990;8.028;2023-05-10T02:09:11;14.50;99.90
23010;DHT22;11671;49.990;8.028;2023-05-10T02:11:43;14.60;99.90
23010;DHT22;11671;49.990;8.028;2023-05-10T02:14:10;14.60;99.90
23010;DHT22;11671;49.990;8.028;2023-05-10T02:16:38;14.60;99.90
23010;DHT22;11671;49.990;8.028;2023-05-10T02:19:05;14.80;99.90
23010;DHT22;11671;49.990;8.028;2023-05-10T02:21:32;14.70;99.90
23010;DHT22;11671;49.990;8.028;2023-05-10T02:23:59;14.80;99.90
23010;DHT22;11671;49.990;8.028;2023-05-10T02:26:26;14.90;99.90
23010;DHT22;11671;49.990;8.028;2023-05-10T02:28:52;14.90;99.90
23010;DHT22;11671;49.990;8.028;2023-05-10T02:31:19;14.90;99.90
23010;DHT22;11671;49.990;8.028;2023-05-10T02:33:46;14.80;99.90
23010;DHT22;11671;49.990;8.028;2023-05-10T02:36:12;14.70;99.90
23010;DHT22;11671;49.990;8.028;2023-05-10T02:38:39;14.70;99.90
23010;DHT22;11671;49.990;8.028;2023-05-10T02:41:08;14.70;99.90
23010;DHT22;11671;49.990;8.028;2023-05-10T02:43:35;14.70;99.90
23010;DHT22;11671;49.990;8.028;2023-05-10T02:46:01;14.70;99.90
23010;DHT22;11671;49.990;8.028;2023-05-10T02:48:27;14.70;99.90
23010;DHT22;11671;49.990;8.028;2023-05-10T02:50:56;14.70;99.90
23010;DHT22;11671;49.990;8.028;2023-05-10T02:53:31;14.70;99.90
23010;DHT22;11671;49.990;8.028;2023-05-10T02:56:05;14.70;99.90
23010;DHT22;11671;49.990;8.028;2023-05-10T02:58:34;14.70;99.90
23010;DHT22;11671;49.990;8.028;2023-05-10T03:01:00;14.70;99.90
23010;DHT22;11671;49.990;8.028;2023-05-10T03:03:26;14.70;99.90
23010;DHT22;11671;49.990;8.028;2023-05-10T03:05:51;14.70;99.90
23010;DHT22;11671;49.990;8.028;2023-05-10T03:08:21;14.70;99.90
23010;DHT22;11671;49.990;8.028;2023-05-10T03:16:29;14.60;99.90
23010;DHT22;11671;49.990;8.028;2023-05-10T03:19:27;14.60;99.90
23010;DHT22;11671;49.990;8.028;2023-05-10T03:21:59;14.70;99.90
23010;DHT22;11671;49.990;8.028;2023-05-10T03:24:27;14.70;99.90
23010;DHT22;11671;49.990;8.028;2023-05-10T03:26:55;14.70;99.90
23010;DHT22;11671;49.990;8.028;2023-05-10T03:29:22;14.60;99.90
23010;DHT22;11671;49.990;8.028;2023-05-10T03:31:49;14.60;99.90
23010;DHT22;11671;49.990;8.028;2023-05-10T03:34:15;14.60;99.90
23010;DHT22;11671;49.990;8.028;2023-05-10T03:36:40;14.60;99.90
23010;DHT22;11671;49.990;8.028;2023-05-10T03:39:06;14.70;99.90
23010;DHT22;11671;49.990;8.028;2023-05-10T03:41:31;14.60;99.90
23010;DHT22;11671;49.990;8.028;2023-05-10T03:43:57;14.70;99.90
23010;DHT22;11671;49.990;8.028;2023-05-10T03:46:22;14.60;99.90
23010;DHT22;11671;49.990;8.028;2023-05-10T03:48:48;14.60;99.90
23010;DHT22;11671;49.990;8.028;2023-05-10T03:51:14;14.60;99.90
23010;DHT22;11671;49.990;8.028;2023-05-10T03:53:39;14.50;99.90
23010;DHT22;11671;49.990;8.028;2023-05-10T03:56:05;14.50;99.90
23010;DHT22;11671;49.990;8.028;2023-05-10T03:58:30;14.50;99.90
23010;DHT22;11671;49.990;8.028;2023-05-10T04:00:56;14.50;99.90
23010;DHT22;11671;49.990;8.028;2023-05-10T04:03:21;14.60;99.90
23010;DHT22;11671;49.990;8.028;2023-05-10T04:05:47;14.60;99.90
23010;DHT22;11671;49.990;8.028;2023-05-10T04:08:12;14.50;99.90
23010;DHT22;11671;49.990;8.028;2023-05-10T04:10:38;14.60;99.90
23010;DHT22;11671;49.990;8.028;2023-05-10T04:13:03;14.60;99.90
23010;DHT22;11671;49.990;8.028;2023-05-10T04:15:29;14.60;99.90
23010;DHT22;11671;49.990;8.028;2023-05-10T04:17:54;14.50;99.90
23010;DHT22;11671;49.990;8.028;2023-05-10T04:20:20;14.50;99.90
23010;DHT22;11671;49.990;8.028;2023-05-10T04:22:46;14.60;99.90
23010;DHT22;11671;49.990;8.028;2023-05-10T04:25:11;14.60;99.90
23010;DHT22;11671;49.990;8.028;2023-05-10T04:27:37;14.60;99.90
23010;DHT22;11671;49.990;8.028;2023-05-10T04:30:03;14.50;99.90
23010;DHT22;11671;49.990;8.028;2023-05-10T04:32:28;14.50;99.90
23010;DHT22;11671;49.990;8.028;2023-05-10T04:34:54;14.50;99.90
23010;DHT22;11671;49.990;8.028;2023-05-10T04:37:20;14.50;99.90
23010;DHT22;11671;49.990;8.028;2023-05-10T04:39:46;14.50;99.90
23010;DHT22;11671;49.990;8.028;2023-05-10T04:42:12;14.50;99.90
23010;DHT22;11671;49.990;8.028;2023-05-10T04:44:40;14.50;99.90
23010;DHT22;11671;49.990;8.028;2023-05-10T04:47:06;14.50;99.90
23010;DHT22;11671;49.990;8.028;2023-05-10T04:49:31;14.50;99.90
23010;DHT22;11671;49.990;8.028;2023-05-10T04:51:57;14.50;99.90
23010;DHT22;11671;49.990;8.028;2023-05-10T04:54:23;14.60;99.90
23010;DHT22;11671;49.990;8.028;2023-05-10T04:56:48;14.60;99.90
23010;DHT22;11671;49.990;8.028;2023-05-10T04:59:14;14.60;99.90
23010;DHT22;11671;49.990;8.028;2023-05-10T05:01:40;14.60;99.90
23010;DHT22;11671;49.990;8.028;2023-05-10T05:04:05;14.60;99.90
23010;DHT22;11671;49.990;8.028;2023-05-10T05:06:32;14.70;99.90
23010;DHT22;11671;49.990;8.028;2023-05-10T05:08:57;14.70;99.90
23010;DHT22;11671;49.990;8.028;2023-05-10T05:11:23;14.70;99.90
23010;DHT22;11671;49.990;8.028;2023-05-10T05:13:48;14.80;99.90
23010;DHT22;11671;49.990;8.028;2023-05-10T05:16:14;14.90;99.90
23010;DHT22;11671;49.990;8.028;2023-05-10T05:18:40;14.90;99.90
23010;DHT22;11671;49.990;8.028;2023-05-10T05:21:18;15.10;99.90
23010;DHT22;11671;49.990;8.028;2023-05-10T05:23:45;15.30;99.90
23010;DHT22;11671;49.990;8.028;2023-05-10T05:26:10;16.00;99.90
23010;DHT22;11671;49.990;8.028;2023-05-10T05:28:36;17.30;99.90
23010;DHT22;11671;49.990;8.028;2023-05-10T05:31:06;17.50;99.90
23010;DHT22;11671;49.990;8.028;2023-05-10T05:33:33;17.90;99.90
23010;DHT22;11671;49.990;8.028;2023-05-10T05:36:03;18.20;99.90
23010;DHT22;11671;49.990;8.028;2023-05-10T05:38:29;18.00;99.90
23010;DHT22;11671;49.990;8.028;2023-05-10T05:40:55;18.20;99.90
23010;DHT22;11671;49.990;8.028;2023-05-10T05:43:21;18.00;99.90
23010;DHT22;11671;49.990;8.028;2023-05-10T05:45:47;17.80;99.90
23010;DHT22;11671;49.990;8.028;2023-05-10T05:48:12;17.50;99.90
23010;DHT22;11671;49.990;8.028;2023-05-10T05:50:38;18.80;99.90
23010;DHT22;11671;49.990;8.028;2023-05-10T05:53:03;19.10;99.90
23010;DHT22;11671;49.990;8.028;2023-05-10T05:55:29;20.20;99.90
23010;DHT22;11671;49.990;8.028;2023-05-10T05:57:57;20.90;99.90
23010;DHT22;11671;49.990;8.028;2023-05-10T06:00:22;22.10;99.90
23010;DHT22;11671;49.990;8.028;2023-05-10T06:02:48;23.20;99.90
23010;DHT22;11671;49.990;8.028;2023-05-10T06:05:14;24.00;99.90
23010;DHT22;11671;49.990;8.028;2023-05-10T06:07:40;25.10;99.90
23010;DHT22;11671;49.990;8.028;2023-05-10T06:10:08;25.70;99.90
23010;DHT22;11671;49.990;8.028;2023-05-10T06:12:34;25.60;99.90
23010;DHT22;11671;49.990;8.028;2023-05-10T06:15:00;26.00;99.90
23010;DHT22;11671;49.990;8.028;2023-05-10T06:17:25;26.30;99.90
23010;DHT22;11671;49.990;8.028;2023-05-10T06:19:51;26.00;99.90
23010;DHT22;11671;49.990;8.028;2023-05-10T06:22:17;26.10;99.90
23010;DHT22;11671;49.990;8.028;2023-05-10T06:24:43;25.70;99.90
23010;DHT22;11671;49.990;8.028;2023-05-10T06:27:08;25.80;99.90
23010;DHT22;11671;49.990;8.028;2023-05-10T06:29:34;26.20;99.90
23010;DHT22;11671;49.990;8.028;2023-05-10T06:32:00;26.80;99.90
23010;DHT22;11671;49.990;8.028;2023-05-10T06:34:25;26.10;99.90
23010;DHT22;11671;49.990;8.028;2023-05-10T06:36:51;25.70;99.90
23010;DHT22;11671;49.990;8.028;2023-05-10T06:39:17;25.50;99.90
23010;DHT22;11671;49.990;8.028;2023-05-10T06:41:43;25.50;99.90
23010;DHT22;11671;49.990;8.028;2023-05-10T06:44:08;25.90;99.90
23010;DHT22;11671;49.990;8.028;2023-05-10T06:46:34;25.60;99.90
23010;DHT22;11671;49.990;8.028;2023-05-10T06:49:00;25.30;99.90
23010;DHT22;11671;49.990;8.028;2023-05-10T06:51:26;25.20;99.90
23010;DHT22;11671;49.990;8.028;2023-05-10T06:53:51;24.80;99.90
23010;DHT22;11671;49.990;8.028;2023-05-10T06:56:17;25.20;99.90
23010;DHT22;11671;49.990;8.028;2023-05-10T06:58:42;24.70;99.90
23010;DHT22;11671;49.990;8.028;2023-05-10T07:01:08;24.40;99.90
23010;DHT22;11671;49.990;8.028;2023-05-10T07:03:34;24.40;99.90
23010;DHT22;11671;49.990;8.028;2023-05-10T07:06:03;24.60;99.90
23010;DHT22;11671;49.990;8.028;2023-05-10T07:08:33;24.30;99.90
23010;DHT22;11671;49.990;8.028;2023-05-10T07:11:03;24.00;99.90
23010;DHT22;11671;49.990;8.028;2023-05-10T07:13:30;23.40;99.90
23010;DHT22;11671;49.990;8.028;2023-05-10T07:15:57;22.90;99.90
23010;DHT22;11671;49.990;8.028;2023-05-10T07:18:22;22.40;99.90
23010;DHT22;11671;49.990;8.028;2023-05-10T07:20:48;22.20;99.90
23010;DHT22;11671;49.990;8.028;2023-05-10T07:23:14;21.90;99.90
23010;DHT22;11671;49.990;8.028;2023-05-10T07:25:39;21.60;99.90
23010;DHT22;11671;49.990;8.028;2023-05-10T07:28:05;21.60;99.90
23010;DHT22;11671;49.990;8.028;2023-05-10T07:30:31;21.10;99.90
23010;DHT22;11671;49.990;8.028;2023-05-10T07:32:56;21.10;99.90
23010;DHT22;11671;49.990;8.028;2023-05-10T07:35:22;21.00;99.90
23010;DHT22;11671;49.990;8.028;2023-05-10T07:37:47;20.70;99.90
23010;DHT22;11671;49.990;8.028;2023-05-10T07:40:13;20.50;99.90
23010;DHT22;11671;49.990;8.028;2023-05-10T07:42:38;20.40;99.90
23010;DHT22;11671;49.990;8.028;2023-05-10T07:45:04;20.20;99.90
23010;DHT22;11671;49.990;8.028;2023-05-10T07:47:30;19.80;99.90
23010;DHT22;11671;49.990;8.028;2023-05-10T07:49:56;19.60;99.90
23010;DHT22;11671;49.990;8.028;2023-05-10T07:52:21;19.40;99.90
23010;DHT22;11671;49.990;8.028;2023-05-10T07:54:47;19.40;99.90
23010;DHT22;11671;49.990;8.028;2023-05-10T07:57:13;19.40;99.90
23010;DHT22;11671;49.990;8.028;2023-05-10T07:59:40;19.50;99.90
23010;DHT22;11671;49.990;8.028;2023-05-10T08:02:06;19.60;99.90
23010;DHT22;11671;49.990;8.028;2023-05-10T08:04:32;19.70;99.90
23010;DHT22;11671;49.990;8.028;2023-05-10T08:06:57;19.90;99.90
23010;DHT22;11671;49.990;8.028;2023-05-10T08:09:23;20.10;99.90
23010;DHT22;11671;49.990;8.028;2023-05-10T08:11:49;20.20;99.90
23010;DHT22;11671;49.990;8.028;2023-05-10T08:14:16;20.20;99.90
23010;DHT22;11671;49.990;8.028;2023-05-10T08:16:41;20.10;99.90
23010;DHT22;11671;49.990;8.028;2023-05-10T08:19:07;19.80;99.90
23010;DHT22;11671;49.990;8.028;2023-05-10T08:21:33;19.50;99.90
23010;DHT22;11671;49.990;8.028;2023-05-10T08:23:59;19.20;99.90
23010;DHT22;11671;49.990;8.028;2023-05-10T08:26:24;19.00;99.90
23010;DHT22;11671;49.990;8.028;2023-05-10T08:28:50;19.00;99.90
23010;DHT22;11671;49.990;8.028;2023-05-10T08:31:16;19.10;99.90
23010;DHT22;11671;49.990;8.028;2023-05-10T08:33:42;19.00;99.90
23010;DHT22;11671;49.990;8.028;2023-05-10T08:36:07;19.00;99.90
23010;DHT22;11671;49.990;8.028;2023-05-10T08:38:33;19.10;99.90
23010;DHT22;11671;49.990;8.028;2023-05-10T08:40:59;19.20;99.90
23010;DHT22;11671;49.990;8.028;2023-05-10T08:43:27;19.40;99.90
23010;DHT22;11671;49.990;8.028;2023-05-10T08:45:55;19.20;99.90
23010;DHT22;11671;49.990;8.028;2023-05-10T08:48:23;19.30;99.90
23010;DHT22;11671;49.990;8.028;2023-05-10T08:50:52;19.30;99.90
23010;DHT22;11671;49.990;8.028;2023-05-10T08:53:20;19.40;99.90
23010;DHT22;11671;49.990;8.028;2023-05-10T08:55:46;19.20;99.90
23010;DHT22;11671;49.990;8.028;2023-05-10T08:58:12;18.80;99.90
23010;DHT22;11671;49.990;8.028;2023-05-10T09:00:37;18.20;99.90
23010;DHT22;11671;49.990;8.028;2023-05-10T09:03:03;17.90;99.90
23010;DHT22;11671;49.990;8.028;2023-05-10T09:05:29;17.80;99.90
23010;DHT22;11671;49.990;8.028;2023-05-10T09:07:55;17.80;99.90
23010;DHT22;11671;49.990;8.028;2023-05-10T09:10:21;17.70;99.90
23010;DHT22;11671;49.990;8.028;2023-05-10T09:12:48;17.80;99.90
23010;DHT22;11671;49.990;8.028;2023-05-10T09:15:15;17.80;99.90
23010;DHT22;11671;49.990;8.028;2023-05-10T09:17:42;17.80;99.90
23010;DHT22;11671;49.990;8.028;2023-05-10T09:20:09;17.80;99.90
23010;DHT22;11671;49.990;8.028;2023-05-10T09:22:35;17.70;99.90
23010;DHT22;11671;49.990;8.028;2023-05-10T09:25:11;17.80;99.90
23010;DHT22;11671;49.990;8.028;2023-05-10T09:27:38;17.80;99.90
23010;DHT22;11671;49.990;8.028;2023-05-10T09:30:05;17.90;99.90
23010;DHT22;11671;49.990;8.028;2023-05-10T09:32:42;18.10;99.90
23010;DHT22;11671;49.990;8.028;2023-05-10T09:35:15;18.30;99.90
23010;DHT22;11671;49.990;8.028;2023-05-10T09:37:42;18.40;99.90
23010;DHT22;11671;49.990;8.028;2023-05-10T09:40:13;18.60;99.90
23010;DHT22;11671;49.990;8.028;2023-05-10T09:42:40;18.60;99.90
23010;DHT22;11671;49.990;8.028;2023-05-10T09:45:07;18.60;99.90
23010;DHT22;11671;49.990;8.028;2023-05-10T09:47:33;18.90;99.90
23010;DHT22;11671;49.990;8.028;2023-05-10T09:50:00;19.20;99.90
23010;DHT22;11671;49.990;8.028;2023-05-10T09:52:50;19.40;99.90
23010;DHT22;11671;49.990;8.028;2023-05-10T09:55:20;19.70;99.90
23010;DHT22;11671;49.990;8.028;2023-05-10T09:57:47;19.70;99.90
23010;DHT22;11671;49.990;8.028;2023-05-10T10:00:22;19.60;99.90
23010;DHT22;11671;49.990;8.028;2023-05-10T10:02:55;19.60;99.90
23010;DHT22;11671;49.990;8.028;2023-05-10T10:05:20;19.50;99.90
23010;DHT22;11671;49.990;8.028;2023-05-10T10:07:46;19.50;99.90
23010;DHT22;11671;49.990;8.028;2023-05-10T10:10:12;19.60;99.90
23010;DHT22;11671;49.990;8.028;2023-05-10T10:12:39;19.60;99.90
23010;DHT22;11671;49.990;8.028;2023-05-10T10:15:07;19.60;99.90
23010;DHT22;11671;49.990;8.028;2023-05-10T10:17:35;19.60;99.90
23010;DHT22;11671;49.990;8.028;2023-05-10T10:20:03;19.40;99.90
23010;DHT22;11671;49.990;8.028;2023-05-10T10:22:28;19.20;99.90
23010;DHT22;11671;49.990;8.028;2023-05-10T10:24:54;19.20;99.90
23010;DHT22;11671;49.990;8.028;2023-05-10T10:27:24;19.20;99.90
23010;DHT22;11671;49.990;8.028;2023-05-10T10:30:03;19.30;99.90
23010;DHT22;11671;49.990;8.028;2023-05-10T10:35:24;19.80;99.90
23010;DHT22;11671;49.990;8.028;2023-05-10T10:37:50;20.30;99.90
23010;DHT22;11671;49.990;8.028;2023-05-10T10:40:26;20.40;99.90
23010;DHT22;11671;49.990;8.028;2023-05-10T10:42:52;20.70;99.90
23010;DHT22;11671;49.990;8.028;2023-05-10T10:45:19;21.10;99.90
23010;DHT22;11671;49.990;8.028;2023-05-10T10:47:45;21.30;99.90
23010;DHT22;11671;49.990;8.028;2023-05-10T10:50:11;21.40;99.90
23010;DHT22;11671;49.990;8.028;2023-05-10T10:52:44;21.40;99.90
23010;DHT22;11671;49.990;8.028;2023-05-10T10:55:13;21.60;99.90
23010;DHT22;11671;49.990;8.028;2023-05-10T10:57:47;21.60;99.90
23010;DHT22;11671;49.990;8.028;2023-05-10T11:00:28;21.50;99.90
23010;DHT22;11671;49.990;8.028;2023-05-10T11:03:25;21.80;99.90
23010;DHT22;11671;49.990;8.028;2023-05-10T11:05:58;21.90;99.90
23010;DHT22;11671;49.990;8.028;2023-05-10T11:08:31;21.90;99.90
23010;DHT22;11671;49.990;8.028;2023-05-10T11:13:44;22.20;99.90
23010;DHT22;11671;49.990;8.028;2023-05-10T11:16:21;22.30;99.90
23010;DHT22;11671;49.990;8.028;2023-05-10T11:19:12;22.50;99.90
23010;DHT22;11671;49.990;8.028;2023-05-10T11:21:49;22.50;99.90
23010;DHT22;11671;49.990;8.028;2023-05-10T11:24:17;22.70;99.90
23010;DHT22;11671;49.990;8.028;2023-05-10T11:26:43;22.90;99.90
23010;DHT22;11671;49.990;8.028;2023-05-10T11:29:09;23.10;99.90
23010;DHT22;11671;49.990;8.028;2023-05-10T11:31:35;23.10;99.90
23010;DHT22;11671;49.990;8.028;2023-05-10T11:34:06;23.20;99.90
23010;DHT22;11671;49.990;8.028;2023-05-10T11:36:35;23.20;99.90
23010;DHT22;11671;49.990;8.028;2023-05-10T11:39:02;23.10;99.90
23010;DHT22;11671;49.990;8.028;2023-05-10T11:41:29;23.10;99.90
23010;DHT22;11671;49.990;8.028;2023-05-10T11:43:56;22.90;99.90
23010;DHT22;11671;49.990;8.028;2023-05-10T11:46:24;22.80;99.90
23010;DHT22;11671;49.990;8.028;2023-05-10T11:48:51;23.00;99.90
23010;DHT22;11671;49.990;8.028;2023-05-10T11:51:21;22.80;99.90
23010;DHT22;11671;49.990;8.028;2023-05-10T11:53:48;22.30;99.90
23010;DHT22;11671;49.990;8.028;2023-05-10T11:56:14;21.90;99.90
23010;DHT22;11671;49.990;8.028;2023-05-10T11:58:40;21.60;99.90
23010;DHT22;11671;49.990;8.028;2023-05-10T12:01:07;21.40;99.90
23010;DHT22;11671;49.990;8.028;2023-05-10T12:03:33;21.30;99.90
23010;DHT22;11671;49.990;8.028;2023-05-10T12:06:00;21.20;99.90
23010;DHT22;11671;49.990;8.028;2023-05-10T12:08:28;21.20;99.90
23010;DHT22;11671;49.990;8.028;2023-05-10T12:11:05;21.20;99.90
23010;DHT22;11671;49.990;8.028;2023-05-10T12:13:30;21.10;99.90
23010;DHT22;11671;49.990;8.028;2023-05-10T12:15:59;21.10;99.90
23010;DHT22;11671;49.990;8.028;2023-05-10T12:18:25;21.10;99.90
23010;DHT22;11671;49.990;8.028;2023-05-10T12:20:54;20.90;99.90
23010;DHT22;11671;49.990;8.028;2023-05-10T12:23:28;21.00;99.90
23010;DHT22;11671;49.990;8.028;2023-05-10T12:25:53;20.90;99.90
23010;DHT22;11671;49.990;8.028;2023-05-10T12:28:30;20.90;99.90
23010;DHT22;11671;49.990;8.028;2023-05-10T12:30:57;20.90;99.90
23010;DHT22;11671;49.990;8.028;2023-05-10T12:33:23;20.90;99.90
23010;DHT22;11671;49.990;8.028;2023-05-10T12:35:49;21.00;99.90
23010;DHT22;11671;49.990;8.028;2023-05-10T12:38:36;21.10;99.90
23010;DHT22;11671;49.990;8.028;2023-05-10T12:41:05;21.10;99.90
23010;DHT22;11671;49.990;8.028;2023-05-10T12:43:31;21.10;99.90
23010;DHT22;11671;49.990;8.028;2023-05-10T12:45:57;20.90;99.90
23010;DHT22;11671;49.990;8.028;2023-05-10T12:48:23;20.90;99.90
23010;DHT22;11671;49.990;8.028;2023-05-10T12:50:48;20.90;99.90
23010;DHT22;11671;49.990;8.028;2023-05-10T12:53:15;21.00;99.90
23010;DHT22;11671;49.990;8.028;2023-05-10T12:55:41;21.20;99.90
23010;DHT22;11671;49.990;8.028;2023-05-10T12:58:07;21.30;99.90
23010;DHT22;11671;49.990;8.028;2023-05-10T13:00:33;21.40;99.90
23010;DHT22;11671;49.990;8.028;2023-05-10T13:02:58;21.60;99.90
23010;DHT22;11671;49.990;8.028;2023-05-10T13:05:24;21.50;99.90
23010;DHT22;11671;49.990;8.028;2023-05-10T13:07:49;21.50;99.90
23010;DHT22;11671;49.990;8.028;2023-05-10T13:10:16;21.60;99.90
23010;DHT22;11671;49.990;8.028;2023-05-10T13:12:41;21.80;99.90
23010;DHT22;11671;49.990;8.028;2023-05-10T13:15:07;21.90;99.90
23010;DHT22;11671;49.990;8.028;2023-05-10T13:17:33;22.10;99.90
23010;DHT22;11671;49.990;8.028;2023-05-10T13:19:58;22.00;99.90
23010;DHT22;11671;49.990;8.028;2023-05-10T13:22:25;22.20;99.90
23010;DHT22;11671;49.990;8.028;2023-05-10T13:24:50;22.30;99.90
23010;DHT22;11671;49.990;8.028;2023-05-10T13:27:16;22.20;99.90
23010;DHT22;11671;49.990;8.028;2023-05-10T13:29:41;22.10;99.90
23010;DHT22;11671;49.990;8.028;2023-05-10T13:32:07;21.80;99.90
23010;DHT22;11671;49.990;8.028;2023-05-10T13:34:33;21.80;99.90
23010;DHT22;11671;49.990;8.028;2023-05-10T13:36:58;21.70;99.90
23010;DHT22;11671;49.990;8.028;2023-05-10T13:39:24;21.90;99.90
23010;DHT22;11671;49.990;8.028;2023-05-10T13:41:49;22.00;99.90
23010;DHT22;11671;49.990;8.028;2023-05-10T13:44:15;21.70;99.90
23010;DHT22;11671;49.990;8.028;2023-05-10T13:46:41;21.50;99.90
23010;DHT22;11671;49.990;8.028;2023-05-10T13:49:10;21.70;99.90
23010;DHT22;11671;49.990;8.028;2023-05-10T13:51:36;21.90;99.90
23010;DHT22;11671;49.990;8.028;2023-05-10T13:54:02;22.10;99.90
23010;DHT22;11671;49.990;8.028;2023-05-10T13:56:28;22.50;99.90
23010;DHT22;11671;49.990;8.028;2023-05-10T13:58:54;22.40;99.90
23010;DHT22;11671;49.990;8.028;2023-05-10T14:01:19;22.30;99.90
23010;DHT22;11671;49.990;8.028;2023-05-10T14:03:45;22.00;99.90
23010;DHT22;11671;49.990;8.028;2023-05-10T14:06:11;22.00;99.90
23010;DHT22;11671;49.990;8.028;2023-05-10T14:08:37;22.10;99.90
23010;DHT22;11671;49.990;8.028;2023-05-10T14:11:02;22.30;99.90
23010;DHT22;11671;49.990;8.028;2023-05-10T14:13:28;22.40;99.90
23010;DHT22;11671;49.990;8.028;2023-05-10T14:15:54;22.60;99.90
23010;DHT22;11671;49.990;8.028;2023-05-10T14:18:20;22.70;99.90
23010;DHT22;11671;49.990;8.028;2023-05-10T14:20:46;22.60;99.90
23010;DHT22;11671;49.990;8.028;2023-05-10T14:23:12;22.50;99.90
23010;DHT22;11671;49.990;8.028;2023-05-10T14:25:41;22.50;99.90
23010;DHT22;11671;49.990;8.028;2023-05-10T14:28:07;22.50;99.90
23010;DHT22;11671;49.990;8.028;2023-05-10T14:30:32;22.70;99.90
23010;DHT22;11671;49.990;8.028;2023-05-10T14:33:00;22.80;99.90
23010;DHT22;11671;49.990;8.028;2023-05-10T14:35:27;22.70;99.90
23010;DHT22;11671;49.990;8.028;2023-05-10T14:37:53;22.70;99.90
23010;DHT22;11671;49.990;8.028;2023-05-10T14:40:19;22.70;99.90
23010;DHT22;11671;49.990;8.028;2023-05-10T14:42:44;22.70;99.90
23010;DHT22;11671;49.990;8.028;2023-05-10T14:45:10;22.60;99.90
23010;DHT22;11671;49.990;8.028;2023-05-10T14:47:37;22.60;99.90
23010;DHT22;11671;49.990;8.028;2023-05-10T14:50:03;22.60;99.90
23010;DHT22;11671;49.990;8.028;2023-05-10T14:52:29;22.70;99.90
23010;DHT22;11671;49.990;8.028;2023-05-10T14:54:54;22.70;99.90
23010;DHT22;11671;49.990;8.028;2023-05-10T14:57:20;22.80;99.90
23010;DHT22;11671;49.990;8.028;2023-05-10T14:59:46;22.90;99.90
23010;DHT22;11671;49.990;8.028;2023-05-10T15:02:11;23.10;99.90
23010;DHT22;11671;49.990;8.028;2023-05-10T15:04:38;23.10;99.90
23010;DHT22;11671;49.990;8.028;2023-05-10T15:07:03;23.00;99.90
23010;DHT22;11671;49.990;8.028;2023-05-10T15:09:29;22.90;99.90
23010;DHT22;11671;49.990;8.028;2023-05-10T15:11:55;22.60;99.90
23010;DHT22;11671;49.990;8.028;2023-05-10T15:14:22;22.50;99.90
23010;DHT22;11671;49.990;8.028;2023-05-10T15:16:47;22.50;99.90
23010;DHT22;11671;49.990;8.028;2023-05-10T15:19:13;22.50;99.90
23010;DHT22;11671;49.990;8.028;2023-05-10T15:21:39;22.40;99.90
23010;DHT22;11671;49.990;8.028;2023-05-10T15:24:07;22.10;99.90
23010;DHT22;11671;49.990;8.028;2023-05-10T15:26:33;22.10;99.90
23010;DHT22;11671;49.990;8.028;2023-05-10T15:28:58;22.10;99.90
23010;DHT22;11671;49.990;8.028;2023-05-10T15:31:24;22.00;99.90
23010;DHT22;11671;49.990;8.028;2023-05-10T15:33:50;22.00;99.90
23010;DHT22;11671;49.990;8.028;2023-05-10T15:36:16;21.90;99.90
23010;DHT22;11671;49.990;8.028;2023-05-10T15:38:43;21.70;99.90
23010;DHT22;11671;49.990;8.028;2023-05-10T15:41:09;21.80;99.90
23010;DHT22;11671;49.990;8.028;2023-05-10T15:43:34;21.70;99.90
23010;DHT22;11671;49.990;8.028;2023-05-10T15:46:00;21.70;99.90
23010;DHT22;11671;49.990;8.028;2023-05-10T15:48:25;21.80;99.90
23010;DHT22;11671;49.990;8.028;2023-05-10T15:50:51;21.80;99.90
23010;DHT22;11671;49.990;8.028;2023-05-10T15:53:16;21.90;99.90
23010;DHT22;11671;49.990;8.028;2023-05-10T15:55:42;21.90;99.90